LFTH 210400Z AUTO 32006KT CAVOK 05/M01 Q1018 NOSIG

ElémentsDécodage
LFTH Station météo située sur l'aérodrome de HYERES Le-Palyvestre
210400Z émis le 21 du mois à 04h00 UTC
AUTO Bulletin édité par un automate
32006KT vent du 320°, 06 noeuds
CAVOK Ceiling And Visibility OK
- Visibilité de 10 Km ou plus
- Pas de nuage au-dessous de 1500m ou au-dessous de l'altitude minimale du secteur la plus élevée (si>1500m) et absence de CB
- pas de temps présent significatif
05/M01 température 05°C, point de rosée -01°C
 soit une humidité relative de 65%
Q1018 la pression au niveau de la mer (QNH) est de 1018 hPa
NOSIG Pas de changement significatif prévu au cours des deux heures suivant l'heure de l'observation